Time;durP1;ratioP1;P1;durP2;ratioP2;P2;SDS_P1;SDS_P2;PMS_P1;PMS_P2;Temp;Humidity;BMP_temperature;BMP_pressure;BME280_temperature;BME280_humidity;BME280_pressure;Samples;Min_cycle;Max_cycle;Signal;HPM_P1;HPM_P2
2022/06/15 00:00:27;;;;;;;5.33;2.00;;;;;;;19.02;100.00;101597.19;2065271;28;20405;-65
2022/06/15 00:01:28;;;;;;;4.60;1.40;;;;;;;19.09;100.00;101601.72;2064983;28;20314;-64
2022/06/15 00:02:29;;;;;;;3.43;1.60;;;;;;;18.98;100.00;101590.19;2065817;28;20186;-65
2022/06/15 00:03:32;;;;;;;7.23;1.73;;;;;;;19.07;100.00;101605.00;2065767;28;20421;-65
2022/06/15 00:04:34;;;;;;;3.33;1.73;;;;;;;19.08;100.00;101600.94;2065662;28;20675;-65
2022/06/15 00:05:34;;;;;;;4.07;1.57;;;;;;;19.03;100.00;101603.59;2065662;28;20420;-65
2022/06/15 00:06:40;;;;;;;5.40;1.47;;;;;;;19.00;100.00;101605.31;2064473;28;20465;-64
2022/06/15 00:07:41;;;;;;;5.33;1.60;;;;;;;19.02;100.00;101597.19;2065662;28;20186;-64
2022/06/15 00:08:44;;;;;;;4.60;1.77;;;;;;;18.54;100.00;101524.28;2065026;28;20519;-65
2022/06/15 00:09:44;;;;;;;3.37;1.43;;;;;;;19.04;100.00;101611.53;2065588;28;20774;-65
2022/06/15 00:10:45;;;;;;;2.83;1.70;;;;;;;18.95;100.00;101605.94;2065822;28;20797;-64
2022/06/15 00:11:46;;;;;;;4.90;1.47;;;;;;;18.99;100.00;101602.97;2065204;28;20664;-64
2022/06/15 00:12:46;;;;;;;3.87;1.80;;;;;;;19.02;100.00;101605.63;2065024;28;20190;-65
2022/06/15 00:13:47;;;;;;;3.93;1.50;;;;;;;19.01;100.00;101606.88;2065044;28;20260;-64
2022/06/15 00:14:48;;;;;;;2.80;1.40;;;;;;;19.00;100.00;101608.13;2065794;28;20298;-65
2022/06/15 00:15:49;;;;;;;4.43;1.70;;;;;;;19.00;100.00;101605.31;2065814;28;20417;-65
2022/06/15 00:16:50;;;;;;;2.93;1.30;;;;;;;18.98;100.00;101601.41;2064307;28;20185;-65
2022/06/15 00:17:51;;;;;;;5.30;1.70;;;;;;;18.84;100.00;101591.53;2065856;28;20527;-65
2022/06/15 00:18:52;;;;;;;4.17;1.50;;;;;;;18.73;100.00;101579.22;2064909;28;20421;-65
2022/06/15 00:19:52;;;;;;;4.60;1.80;;;;;;;18.96;100.00;101603.88;2065526;28;20190;-64
2022/06/15 00:20:53;;;;;;;4.50;1.67;;;;;;;18.98;100.00;101610.59;2065498;28;20184;-64
2022/06/15 00:21:54;;;;;;;3.00;1.13;;;;;;;19.00;100.00;101615.75;2065165;28;20193;-64
2022/06/15 00:22:55;;;;;;;3.97;1.63;;;;;;;19.03;100.00;101612.03;2065676;28;20927;-65
2022/06/15 00:23:57;;;;;;;5.10;1.90;;;;;;;19.00;100.00;101607.34;2065656;28;20174;-64
2022/06/15 00:24:57;;;;;;;4.47;1.70;;;;;;;19.03;100.00;101609.22;2065613;28;20218;-65
2022/06/15 00:25:58;;;;;;;5.63;1.60;;;;;;;18.94;100.00;101595.16;2065438;28;20452;-64
2022/06/15 00:26:58;;;;;;;3.20;1.50;;;;;;;18.60;100.00;101542.06;2064608;28;20738;-65
2022/06/15 00:27:59;;;;;;;3.00;1.47;;;;;;;19.10;100.00;101617.34;2065810;28;20181;-64
2022/06/15 00:29:00;;;;;;;4.40;1.53;;;;;;;19.15;100.00;101613.91;2065032;28;20563;-65
2022/06/15 00:30:01;;;;;;;4.10;1.40;;;;;;;19.18;100.00;101612.97;2065241;28;20262;-64
2022/06/15 00:31:02;;;;;;;2.33;1.50;;;;;;;19.15;100.00;101614.69;2065515;28;20273;-65
2022/06/15 00:32:05;;;;;;;3.70;1.50;;;;;;;19.20;100.00;101627.34;2064952;28;20664;-65
2022/06/15 00:33:06;;;;;;;6.47;1.77;;;;;;;19.04;100.00;101588.31;2065465;28;20418;-65
2022/06/15 00:34:06;;;;;;;6.07;2.10;;;;;;;18.11;100.00;101441.06;2064562;28;20434;-64
2022/06/15 00:35:07;;;;;;;7.63;1.70;;;;;;;19.29;100.00;101618.94;2065553;28;20191;-65
2022/06/15 00:36:18;;;;;;;6.10;1.80;;;;;;;18.55;100.00;101506.97;2064980;28;20305;-65
2022/06/15 00:37:18;;;;;;;5.33;1.73;;;;;;;19.29;100.00;101616.13;2065204;28;20874;-65
2022/06/15 00:38:18;;;;;;;3.77;1.40;;;;;;;19.20;100.00;101611.25;2065497;28;20428;-65
2022/06/15 00:39:19;;;;;;;5.27;1.67;;;;;;;19.23;100.00;101615.16;2065129;28;20188;-65
2022/06/15 00:40:19;;;;;;;2.63;1.53;;;;;;;18.43;100.00;101490.25;2065031;28;20191;-64
2022/06/15 00:41:27;;;;;;;6.27;1.60;;;;;;;18.09;100.00;101452.75;2065224;28;20282;-65
2022/06/15 00:42:30;;;;;;;4.53;1.87;;;;;;;19.09;100.00;101590.50;2065589;28;20250;-65
2022/06/15 00:43:45;;;;;;;3.33;1.63;;;;;;;19.28;100.00;101618.16;2064778;28;20413;-64
2022/06/15 00:44:49;;;;;;;6.70;1.73;;;;;;;19.31;100.00;101620.03;2064808;28;20406;-64
2022/06/15 00:45:50;;;;;;;6.90;1.70;;;;;;;19.35;100.00;101615.00;2065536;28;20441;-64
2022/06/15 00:46:59;;;;;;;4.10;1.50;;;;;;;19.37;100.00;101615.34;2064622;28;20805;-65
2022/06/15 00:48:00;;;;;;;5.40;1.60;;;;;;;19.43;100.00;101621.91;2064977;28;20496;-65
2022/06/15 00:49:09;;;;;;;4.93;1.60;;;;;;;19.41;100.00;101615.97;2065333;28;20413;-64
2022/06/15 00:50:19;;;;;;;3.73;1.60;;;;;;;19.42;100.00;101622.34;2064663;28;20795;-64
2022/06/15 00:51:21;;;;;;;4.23;1.70;;;;;;;18.92;100.00;101550.69;2065188;28;20933;-65
2022/06/15 00:52:33;;;;;;;3.43;1.70;;;;;;;19.41;100.00;101615.19;2065161;28;20441;-64
2022/06/15 00:53:34;;;;;;;2.90;1.50;;;;;;;19.39;100.00;101621.25;2065550;28;20794;-65
2022/06/15 00:54:34;;;;;;;3.57;1.50;;;;;;;19.40;100.00;101617.19;2065389;28;20435;-65
2022/06/15 00:55:35;;;;;;;3.83;1.40;;;;;;;19.41;100.00;101615.19;2065513;28;20182;-64
2022/06/15 00:56:37;;;;;;;2.70;1.63;;;;;;;19.45;100.00;101624.25;2064741;28;20182;-64
2022/06/15 00:57:39;;;;;;;4.23;1.60;;;;;;;19.37;100.00;101598.47;2065325;28;20604;-64
2022/06/15 00:58:46;;;;;;;3.87;1.57;;;;;;;19.51;100.00;101620.34;2064841;28;20929;-65
2022/06/15 00:59:53;;;;;;;3.40;1.60;;;;;;;19.60;100.00;101619.56;2065496;28;20404;-65
2022/06/15 01:00:56;;;;;;;3.47;1.40;;;;;;;19.64;100.00;101620.16;2064322;28;20425;-64
2022/06/15 01:01:57;;;;;;;5.77;1.70;;;;;;;19.22;100.00;101552.59;2064824;28;20938;-65
2022/06/15 01:02:58;;;;;;;5.30;1.73;;;;;;;19.65;100.00;101613.28;2065556;28;21004;-64
2022/06/15 01:04:01;;;;;;;4.53;1.60;;;;;;;19.72;100.00;101627.03;2065444;28;20770;-64
2022/06/15 01:05:06;;;;;;;4.23;1.70;;;;;;;19.74;100.00;101627.31;2065198;28;20184;-64
2022/06/15 01:06:42;;;;;;;3.07;1.53;;;;;;;19.84;100.00;101626.06;2064696;28;20819;-65
2022/06/15 01:08:07;;;;;;;6.60;1.70;;;;;;;19.84;100.00;101629.66;2051926;28;21030;-65
2022/06/15 01:09:27;;;;;;;4.97;1.70;;;;;;;19.85;100.00;101631.22;2064620;28;20401;-64
2022/06/15 01:10:50;;;;;;;5.33;1.50;;;;;;;19.84;100.00;101634.50;2065470;28;20948;-64
2022/06/15 01:11:56;;;;;;;5.77;1.73;;;;;;;19.90;100.00;101624.94;2064743;28;20414;-65
2022/06/15 01:12:57;;;;;;;8.13;1.80;;;;;;;19.92;100.00;101632.91;2065344;28;20421;-65
2022/06/15 01:14:28;;;;;;;5.83;1.97;;;;;;;19.95;100.00;101637.63;2065344;28;20425;-65
2022/06/15 01:15:40;;;;;;;8.80;2.07;;;;;;;19.99;100.00;101627.75;2065064;28;20171;-65
2022/06/15 01:16:53;;;;;;;7.47;2.10;;;;;;;20.00;100.00;101642.59;2064505;28;20417;-64
2022/06/15 01:18:02;;;;;;;5.40;1.80;;;;;;;20.03;100.00;101636.00;2065544;28;20402;-65
2022/06/15 01:19:08;;;;;;;5.70;1.70;;;;;;;20.04;100.00;101634.75;2065196;28;20414;-65
2022/06/15 01:20:12;;;;;;;5.97;1.80;;;;;;;20.09;100.00;101629.31;2064919;28;20444;-65
2022/06/15 01:21:27;;;;;;;4.53;1.40;;;;;;;19.17;100.00;101493.38;2064655;28;20448;-64
2022/06/15 01:23:02;;;;;;;4.73;1.63;;;;;;;20.07;100.00;101628.19;2065095;28;20784;-64
2022/06/15 01:24:33;;;;;;;5.77;1.70;;;;;;;20.05;100.00;101633.53;2065285;28;20407;-64
2022/06/15 01:25:39;;;;;;;4.13;1.90;;;;;;;20.08;100.00;101629.78;2064961;28;20449;-65
2022/06/15 01:27:04;;;;;;;7.33;1.87;;;;;;;20.08;100.00;101629.78;2064336;28;20475;-64
2022/06/15 01:28:24;;;;;;;6.57;1.90;;;;;;;19.96;100.00;101625.09;2065254;28;20826;-65
2022/06/15 01:30:02;;;;;;;5.30;1.30;;;;;;;20.08;100.00;101627.75;2065285;28;20480;-64
2022/06/15 01:31:22;;;;;;;3.17;1.53;;;;;;;20.09;100.00;101629.31;2065200;28;20409;-64
2022/06/15 01:32:28;;;;;;;2.70;1.43;;;;;;;20.10;100.00;101635.69;2056348;28;20419;-64
2022/06/15 01:33:56;;;;;;;4.73;1.40;;;;;;;20.11;100.00;101632.41;2061592;28;20422;-65
2022/06/15 01:35:31;;;;;;;4.73;1.70;;;;;;;20.17;100.00;101632.56;2065103;28;20942;-65
2022/06/15 01:36:34;;;;;;;5.43;1.40;;;;;;;20.19;100.00;101639.28;2064326;28;20424;-64
2022/06/15 01:37:52;;;;;;;4.23;1.40;;;;;;;20.20;100.00;101632.41;2065089;28;20886;-65
2022/06/15 01:39:03;;;;;;;2.63;1.30;;;;;;;19.73;100.00;101567.50;2065164;28;20405;-65
2022/06/15 01:40:13;;;;;;;3.83;1.50;;;;;;;20.09;100.00;101634.16;2065075;28;20397;-66
2022/06/15 01:41:27;;;;;;;2.50;1.50;;;;;;;20.14;100.00;101630.69;2064737;28;20502;-64
2022/06/15 01:42:46;;;;;;;2.80;1.30;;;;;;;20.21;100.00;101645.22;2064173;28;20416;-65
2022/06/15 01:44:00;;;;;;;4.93;1.50;;;;;;;20.27;100.00;101631.28;2064995;28;20420;-65
2022/06/15 01:45:07;;;;;;;3.57;1.70;;;;;;;20.33;100.00;101652.69;2065063;28;20419;-65
2022/06/15 01:46:08;;;;;;;7.37;1.60;;;;;;;20.12;100.00;101614.28;2064346;28;20786;-64
2022/06/15 01:47:14;;;;;;;7.83;1.67;;;;;;;20.30;100.00;101639.56;2064962;28;20461;-65
2022/06/15 01:48:16;;;;;;;4.10;1.63;;;;;;;20.27;100.00;101637.69;2065106;28;20907;-65
2022/06/15 01:49:26;;;;;;;3.87;1.30;;;;;;;19.81;100.00;101591.22;2065008;28;20469;-65
2022/06/15 01:50:34;;;;;;;9.70;2.30;;;;;;;20.32;100.00;101662.38;2064950;28;20408;-65
2022/06/15 01:51:43;;;;;;;7.07;2.37;;;;;;;19.70;100.00;101560.00;2064167;28;20422;-64
2022/06/15 01:53:09;;;;;;;4.50;1.60;;;;;;;20.31;100.00;101654.44;2064348;28;20796;-65
2022/06/15 01:54:35;;;;;;;3.67;1.50;;;;;;;20.32;100.00;101642.66;2065173;28;20448;-65
2022/06/15 01:55:42;;;;;;;3.67;1.40;;;;;;;20.31;100.00;101654.44;2064768;28;20410;-64
2022/06/15 01:56:46;;;;;;;3.03;1.50;;;;;;;19.37;100.00;101516.19;2064182;28;20445;-65
2022/06/15 01:57:50;;;;;;;3.30;1.57;;;;;;;20.32;100.00;101656.75;2064894;28;20422;-65
2022/06/15 01:58:59;;;;;;;2.57;1.27;;;;;;;20.26;100.00;101655.06;2064961;28;20432;-65
2022/06/15 02:00:13;;;;;;;4.33;1.60;;;;;;;19.33;100.00;101513.53;2065071;28;20501;-64
2022/06/15 02:01:20;;;;;;;3.40;1.40;;;;;;;20.22;100.00;101657.25;2064058;28;20557;-65
2022/06/15 02:02:32;;;;;;;3.63;1.53;;;;;;;20.20;100.00;101648.50;2064508;28;20421;-64
2022/06/15 02:03:46;;;;;;;5.53;1.63;;;;;;;20.14;100.00;101656.81;2064250;28;20430;-64
2022/06/15 02:05:08;;;;;;;7.00;2.10;;;;;;;20.18;100.00;101659.47;2064988;28;20843;-64
2022/06/15 02:06:29;;;;;;;10.37;2.47;;;;;;;20.23;100.00;101662.41;2064011;28;20840;-65
2022/06/15 02:08:16;;;;;;;11.07;2.90;;;;;;;20.40;100.00;101674.06;2065032;28;20934;-65
2022/06/15 02:09:29;;;;;;;7.20;2.00;;;;;;;20.45;100.00;101670.63;2050448;28;20535;-64
2022/06/15 02:10:40;;;;;;;6.63;2.33;;;;;;;20.50;100.00;101667.94;2047814;29;20482;-64
2022/06/15 02:11:42;;;;;;;12.00;2.33;;;;;;;19.97;100.00;101582.44;2057487;28;20465;-65
2022/06/15 02:12:48;;;;;;;7.97;1.80;;;;;;;20.59;100.00;101669.94;2064501;28;20803;-65
2022/06/15 02:13:58;;;;;;;2.87;1.47;;;;;;;20.63;100.00;101682.56;2064433;28;20428;-64
2022/06/15 02:15:00;;;;;;;3.77;1.40;;;;;;;20.29;100.00;101623.94;2065047;28;20417;-65
2022/06/15 02:16:06;;;;;;;4.80;1.50;;;;;;;20.59;100.00;101662.28;2064312;28;20416;-64
2022/06/15 02:17:10;;;;;;;3.50;1.50;;;;;;;20.64;100.00;101660.84;2064566;28;20428;-65
2022/06/15 02:18:15;;;;;;;4.10;1.43;;;;;;;20.63;100.00;101668.50;2065028;28;20521;-65
2022/06/15 02:19:20;;;;;;;4.03;1.70;;;;;;;20.49;100.00;101677.66;2064812;28;20430;-65
2022/06/15 02:20:29;;;;;;;5.00;1.70;;;;;;;20.51;100.00;101663.88;2064902;28;20425;-65
2022/06/15 02:21:30;;;;;;;3.40;1.30;;;;;;;20.54;100.00;101677.00;2064247;28;20405;-64
2022/06/15 02:22:33;;;;;;;5.97;1.60;;;;;;;20.60;100.00;101677.13;2064241;28;20454;-65
2022/06/15 02:23:38;;;;;;;2.83;1.67;;;;;;;20.68;100.00;101678.34;2064330;28;21093;-65
2022/06/15 02:24:40;;;;;;;3.90;1.70;;;;;;;20.70;100.00;101676.63;2064119;28;20807;-65
2022/06/15 02:25:44;;;;;;;7.20;1.57;;;;;;;20.72;100.00;101678.97;2064023;28;20455;-64
2022/06/15 02:26:45;;;;;;;3.67;1.73;;;;;;;20.78;100.00;101677.81;2063042;28;20428;-64
2022/06/15 02:27:48;;;;;;;5.33;1.33;;;;;;;19.96;100.00;101552.72;2064866;28;20431;-65
2022/06/15 02:28:51;;;;;;;3.50;1.40;;;;;;;20.83;100.00;101684.84;2064789;28;20269;-65
2022/06/15 02:29:55;;;;;;;3.17;1.50;;;;;;;20.28;100.00;101594.22;2064721;28;20472;-65
2022/06/15 02:30:56;;;;;;;4.10;1.57;;;;;;;20.84;100.00;101687.19;2064611;28;20424;-64
2022/06/15 02:31:57;;;;;;;5.33;1.50;;;;;;;20.37;100.00;101636.38;2064087;28;20425;-64
2022/06/15 02:33:14;;;;;;;3.43;1.33;;;;;;;20.58;100.00;101671.19;2064053;28;20230;-64
2022/06/15 02:34:14;;;;;;;4.27;1.57;;;;;;;19.94;100.00;101571.31;2064452;28;20421;-64
2022/06/15 02:35:17;;;;;;;3.30;1.20;;;;;;;20.65;100.00;101682.91;2064293;28;20433;-65
2022/06/15 02:36:18;;;;;;;4.67;1.70;;;;;;;20.67;100.00;101683.19;2063803;28;20190;-65
2022/06/15 02:37:18;;;;;;;3.90;1.30;;;;;;;20.59;100.00;101686.84;2064757;28;20436;-65
2022/06/15 02:38:19;;;;;;;3.03;1.63;;;;;;;20.51;100.00;101683.56;2064660;28;20190;-65
2022/06/15 02:39:20;;;;;;;3.03;1.30;;;;;;;20.59;100.00;101684.03;2064701;28;20188;-65
2022/06/15 02:40:22;;;;;;;3.83;1.60;;;;;;;20.60;100.00;101689.19;2064769;28;20268;-64
2022/06/15 02:41:23;;;;;;;3.60;1.53;;;;;;;20.59;100.00;101684.81;2064187;28;20656;-64
2022/06/15 02:42:33;;;;;;;4.10;1.57;;;;;;;20.61;100.00;101687.13;2064511;28;20874;-65
2022/06/15 02:43:37;;;;;;;3.93;1.43;;;;;;;20.46;100.00;101689.09;2063910;28;20194;-65
2022/06/15 02:44:37;;;;;;;3.47;1.50;;;;;;;19.54;100.00;101553.97;2064496;28;20515;-65
2022/06/15 02:45:40;;;;;;;3.27;1.60;;;;;;;20.38;100.00;101696.31;2064134;28;20439;-64
2022/06/15 02:46:45;;;;;;;2.77;1.37;;;;;;;20.40;100.00;101694.56;2063585;28;20208;-65
2022/06/15 02:47:46;;;;;;;4.33;1.50;;;;;;;20.34;100.00;101684.44;2064593;28;20915;-65
2022/06/15 02:48:47;;;;;;;4.90;1.57;;;;;;;20.41;100.00;101686.91;2064731;28;20945;-64
2022/06/15 02:49:51;;;;;;;4.53;1.47;;;;;;;20.43;100.00;101687.22;2064592;28;20894;-65
2022/06/15 02:51:15;;;;;;;5.70;1.67;;;;;;;20.43;100.00;101696.47;2064641;28;20209;-65
2022/06/15 02:52:19;;;;;;;5.33;1.70;;;;;;;20.23;100.00;101658.81;2047313;29;20440;-65
2022/06/15 02:53:24;;;;;;;5.33;2.03;;;;;;;20.37;100.00;101673.00;2062749;28;20471;-65
2022/06/15 02:54:37;;;;;;;4.90;1.40;;;;;;;20.44;100.00;101697.22;2063888;28;20428;-65
2022/06/15 02:55:38;;;;;;;4.70;1.73;;;;;;;20.45;100.00;101702.38;2064247;28;20402;-64
2022/06/15 02:56:39;;;;;;;5.30;1.50;;;;;;;20.42;100.00;101699.75;2063003;28;20953;-65
2022/06/15 02:57:47;;;;;;;3.43;1.50;;;;;;;20.54;100.00;101705.16;2064394;28;20520;-64
2022/06/15 02:58:49;;;;;;;3.93;1.70;;;;;;;19.87;100.00;101594.19;2064625;28;20421;-65
2022/06/15 02:59:50;;;;;;;3.70;1.60;;;;;;;20.64;100.00;101714.34;2064515;28;20429;-65
2022/06/15 03:00:51;;;;;;;5.60;1.77;;;;;;;20.59;100.00;101707.34;2064458;28;20495;-64
2022/06/15 03:01:51;;;;;;;5.00;1.47;;;;;;;20.61;100.00;101710.44;2063972;28;20528;-65
2022/06/15 03:02:52;;;;;;;3.13;1.40;;;;;;;20.57;100.00;101706.25;2064759;28;20182;-64
2022/06/15 03:03:52;;;;;;;3.27;1.40;;;;;;;20.68;100.00;101718.56;2064496;28;20578;-65
2022/06/15 03:04:53;;;;;;;4.60;1.73;;;;;;;20.61;100.00;101712.47;2063723;28;20179;-65
2022/06/15 03:05:54;;;;;;;3.37;1.63;;;;;;;19.58;100.00;101575.03;2063635;28;20671;-65
2022/06/15 03:06:54;;;;;;;2.87;1.43;;;;;;;20.53;100.00;101716.91;2062288;28;20189;-65
2022/06/15 03:07:55;;;;;;;4.37;1.60;;;;;;;20.57;100.00;101717.53;2063943;28;20683;-65
2022/06/15 03:08:57;;;;;;;6.10;2.27;;;;;;;20.11;100.00;101638.06;2064532;28;20220;-65
2022/06/15 03:09:57;;;;;;;4.83;1.50;;;;;;;20.43;100.00;101685.19;2064593;28;20185;-65
2022/06/15 03:10:58;;;;;;;5.53;1.70;;;;;;;20.80;100.00;101725.22;2064558;28;20413;-65
2022/06/15 03:11:58;;;;;;;5.00;1.87;;;;;;;20.84;100.00;101732.28;2063936;28;20186;-64
2022/06/15 03:12:59;;;;;;;4.70;1.77;;;;;;;20.85;100.00;101722.56;2064531;28;20329;-65
2022/06/15 03:13:59;;;;;;;5.17;1.57;;;;;;;20.64;100.00;101691.81;2064467;28;20216;-65
2022/06/15 03:15:00;;;;;;;3.40;1.60;;;;;;;20.90;100.00;101718.34;2063566;28;20588;-64
2022/06/15 03:16:02;;;;;;;5.17;1.70;;;;;;;20.98;100.00;101730.84;2064232;28;20232;-65
2022/06/15 03:17:03;;;;;;;4.23;1.70;;;;;;;21.06;100.00;101730.00;2063172;28;20261;-65
2022/06/15 03:18:03;;;;;;;6.60;2.00;;;;;;;21.09;100.00;101734.66;2064523;28;20430;-65
2022/06/15 03:19:04;;;;;;;2.10;1.37;;;;;;;21.15;100.00;101729.94;2064515;28;20178;-65
2022/06/15 03:20:06;;;;;;;6.93;1.70;;;;;;;21.22;100.00;101734.44;2064515;28;20178;-65
2022/06/15 03:21:06;;;;;;;5.60;2.00;;;;;;;21.19;100.00;101721.31;2064241;28;20177;-65
2022/06/15 03:22:06;;;;;;;4.87;2.10;;;;;;;21.36;100.00;101737.34;2063913;28;20424;-64
2022/06/15 03:23:08;;;;;;;4.57;2.00;;;;;;;21.34;100.00;101734.19;2064509;28;20233;-65
2022/06/15 03:24:09;;;;;;;3.00;1.90;;;;;;;20.92;100.00;101670.72;2063739;28;20305;-65
2022/06/15 03:25:09;;;;;;;6.63;2.10;;;;;;;21.24;100.00;101731.94;2062830;28;20174;-65
2022/06/15 03:26:10;;;;;;;4.67;1.97;;;;;;;20.68;100.00;101667.09;2063643;28;20232;-65
2022/06/15 03:27:10;;;;;;;4.43;1.80;;;;;;;21.10;100.00;101743.91;2064043;28;20598;-65
2022/06/15 03:28:11;;;;;;;3.73;1.97;;;;;;;21.02;100.00;101737.84;2064081;28;20183;-65
2022/06/15 03:29:11;;;;;;;5.93;2.10;;;;;;;20.84;100.00;101723.03;2064404;28;20205;-65
2022/06/15 03:30:13;;;;;;;7.40;2.07;;;;;;;20.90;100.00;101740.88;2064446;28;20265;-65
2022/06/15 03:31:13;;;;;;;4.60;2.00;;;;;;;20.90;100.00;101741.66;2064203;28;20190;-64
2022/06/15 03:32:15;;;;;;;6.83;1.90;;;;;;;20.79;100.00;101727.28;2064133;28;20458;-65
2022/06/15 03:33:17;;;;;;;4.57;1.90;;;;;;;20.86;100.00;101743.84;2064378;28;20217;-65
2022/06/15 03:34:17;;;;;;;5.17;1.80;;;;;;;20.88;100.00;101749.78;2064336;28;20508;-65
2022/06/15 03:35:18;;;;;;;4.30;1.80;;;;;;;20.84;100.00;101737.91;2064254;28;20428;-65
2022/06/15 03:36:20;;;;;;;4.47;2.00;;;;;;;20.91;100.00;101745.25;2062869;28;20189;-64
2022/06/15 03:37:20;;;;;;;4.40;1.80;;;;;;;20.92;100.00;101750.41;2066814;28;20695;-65
2022/06/15 03:38:21;;;;;;;4.57;1.70;;;;;;;20.98;100.00;101747.75;2062632;28;20441;-64
2022/06/15 03:39:21;;;;;;;4.70;2.17;;;;;;;21.09;100.00;101748.00;2055538;28;20566;-65
2022/06/15 03:40:22;;;;;;;8.60;2.20;;;;;;;21.01;100.00;101741.91;2056381;28;20191;-65
2022/06/15 03:41:23;;;;;;;4.90;2.20;;;;;;;21.24;100.00;101754.50;2055958;28;20609;-65
2022/06/15 03:42:26;;;;;;;7.70;1.97;;;;;;;21.34;100.00;101753.16;2055853;28;20183;-65
2022/06/15 03:43:27;;;;;;;5.07;1.90;;;;;;;21.37;100.00;101755.81;2056378;28;20179;-65
2022/06/15 03:44:27;;;;;;;3.87;2.00;;;;;;;20.69;100.00;101652.53;2056294;28;20516;-65
2022/06/15 03:45:29;;;;;;;6.43;2.30;;;;;;;21.49;100.00;101759.66;2056354;28;20977;-65
2022/06/15 03:46:29;;;;;;;5.87;2.40;;;;;;;21.53;100.00;101760.22;2054596;28;20773;-65
2022/06/15 03:47:30;;;;;;;5.20;2.10;;;;;;;21.61;100.00;101752.97;2056094;28;20503;-65
2022/06/15 03:48:30;;;;;;;5.23;2.00;;;;;;;21.73;100.00;101754.78;2054844;28;20258;-65
2022/06/15 03:49:31;;;;;;;6.03;2.07;;;;;;;21.65;100.00;101737.41;2056297;28;20765;-65
2022/06/15 03:50:33;;;;;;;5.47;2.13;;;;;;;21.87;100.00;101752.03;2056290;28;20206;-64
2022/06/15 03:51:33;;;;;;;5.37;2.00;;;;;;;21.81;100.00;101756.75;2055748;28;20183;-65
2022/06/15 03:52:34;;;;;;;5.97;1.90;;;;;;;21.82;100.00;101749.88;2056508;28;20480;-64
2022/06/15 03:53:34;;;;;;;8.70;1.80;;;;;;;21.86;100.00;101758.13;2056193;28;20180;-65
2022/06/15 03:54:35;;;;;;;2.43;1.57;;;;;;;21.18;100.00;101649.28;2056293;28;20197;-65
2022/06/15 03:55:36;;;;;;;4.50;1.90;;;;;;;21.89;100.00;101749.47;2056247;28;20183;-65
2022/06/15 03:56:45;;;;;;;5.30;2.00;;;;;;;21.90;100.00;101753.84;2054440;28;20193;-65
2022/06/15 03:57:46;;;;;;;4.07;1.60;;;;;;;21.94;100.00;101757.28;2062732;28;20430;-65
2022/06/15 03:58:47;;;;;;;4.33;2.00;;;;;;;20.86;100.00;101585.28;2063008;28;21012;-65
2022/06/15 03:59:47;;;;;;;4.70;2.20;;;;;;;21.93;100.00;101754.94;2064153;28;20253;-65
2022/06/15 04:00:49;;;;;;;4.80;2.33;;;;;;;21.97;100.00;101747.06;2064087;28;20182;-65
2022/06/15 04:01:49;;;;;;;4.40;2.63;;;;;;;21.91;100.00;101749.75;2063768;28;20190;-65
2022/06/15 04:02:52;;;;;;;6.40;2.20;;;;;;;21.84;100.00;101763.47;2064261;28;20460;-65
2022/06/15 04:03:52;;;;;;;4.87;2.53;;;;;;;21.78;100.00;101756.94;2064316;28;20375;-65
2022/06/15 04:04:53;;;;;;;4.90;2.50;;;;;;;21.84;100.00;101761.44;2064125;28;20432;-65
2022/06/15 04:05:56;;;;;;;5.93;2.93;;;;;;;21.79;100.00;101764.13;2064119;28;20256;-64
2022/06/15 04:06:57;;;;;;;6.40;2.90;;;;;;;21.78;100.00;101771.03;2047092;28;20258;-65
2022/06/15 04:09:23;;;;;;;8.53;2.93;;;;;;;21.71;100.00;101769.41;2047692;29;20514;-64
2022/06/15 04:10:24;;;;;;;9.00;3.27;;;;;;;21.69;100.00;101774.72;2049695;28;20455;-65
2022/06/15 04:12:44;;;;;;;9.00;6.03;;;;;;;21.77;100.00;101780.78;2049785;29;20199;-65
2022/06/15 04:13:45;;;;;;;10.17;6.20;;;;;;;21.76;100.00;101782.84;2049694;28;20419;-65
2022/06/15 04:14:45;;;;;;;6.63;3.63;;;;;;;21.72;100.00;101778.63;2049538;28;20519;-65
2022/06/15 04:15:46;;;;;;;4.90;3.87;;;;;;;21.70;100.00;101781.91;2048957;28;20211;-64
2022/06/15 04:16:53;;;;;;;4.37;3.33;;;;;;;21.70;100.00;101781.16;2047778;29;20178;-64
2022/06/15 04:17:53;;;;;;;4.73;3.27;;;;;;;21.68;100.00;101789.28;2048717;28;20471;-64
2022/06/15 04:18:54;;;;;;;7.03;3.53;;;;;;;21.13;100.00;101726.81;2048897;28;20435;-64
2022/06/15 04:21:14;;;;;;;14.43;10.70;;;;;;;21.77;100.00;101778.75;2049306;29;20164;-66
2022/06/15 04:22:14;;;;;;;10.53;6.50;;;;;;;21.39;100.00;101721.50;2049523;28;20447;-65
2022/06/15 04:23:17;;;;;;;7.50;3.93;;;;;;;21.80;100.00;101793.94;2049601;28;20207;-64
2022/06/15 04:24:19;;;;;;;6.50;3.90;;;;;;;21.81;100.00;101784.22;2049462;28;20176;-65
2022/06/15 04:25:19;;;;;;;6.73;3.77;;;;;;;21.83;100.00;101788.09;2049646;28;20431;-64
2022/06/15 04:26:20;;;;;;;5.77;3.30;;;;;;;21.34;100.00;101700.34;2048526;28;20756;-64
2022/06/15 04:27:21;;;;;;;9.37;3.40;;;;;;;22.04;100.00;101795.44;2049064;28;20184;-65
2022/06/15 04:28:22;;;;;;;6.03;3.20;;;;;;;21.99;100.00;101796.13;2047710;28;20188;-64
2022/06/15 04:29:23;;;;;;;7.37;2.97;;;;;;;21.88;100.00;101789.47;2048643;29;20210;-65
2022/06/15 04:30:25;;;;;;;7.97;3.43;;;;;;;21.92;100.00;101787.25;2048282;28;20426;-64
2022/06/15 04:31:26;;;;;;;6.57;3.30;;;;;;;21.87;100.00;101785.09;2049057;28;20431;-64
2022/06/15 04:32:26;;;;;;;5.20;3.00;;;;;;;21.81;100.00;101787.03;2049390;28;20834;-64
2022/06/15 04:33:28;;;;;;;4.80;3.17;;;;;;;21.86;100.00;101787.13;2049368;28;20433;-66
2022/06/15 04:34:29;;;;;;;5.33;3.57;;;;;;;21.91;100.00;101791.34;2049344;28;20176;-66
2022/06/15 04:35:29;;;;;;;6.07;2.90;;;;;;;21.91;100.00;101794.91;2049309;28;20419;-64
2022/06/15 04:36:30;;;;;;;8.63;2.80;;;;;;;21.89;100.00;101793.84;2048506;28;20180;-64
2022/06/15 04:37:31;;;;;;;4.77;3.10;;;;;;;21.86;100.00;101800.47;2048866;28;20662;-64
2022/06/15 04:38:32;;;;;;;6.87;2.97;;;;;;;21.66;100.00;101763.59;2047915;28;20242;-64
2022/06/15 04:39:32;;;;;;;5.57;3.10;;;;;;;21.85;100.00;101802.50;2047159;29;20175;-64
2022/06/15 04:40:34;;;;;;;5.13;3.13;;;;;;;21.88;100.00;101793.09;2046675;28;20250;-65
2022/06/15 04:41:36;;;;;;;8.00;3.20;;;;;;;21.93;100.00;101798.06;2046924;29;20188;-65
2022/06/15 04:42:37;;;;;;;6.93;3.80;;;;;;;21.75;100.00;101772.03;2047008;29;20494;-65
2022/06/15 04:43:37;;;;;;;6.83;3.07;;;;;;;21.86;100.00;101789.19;2047316;28;20463;-64
2022/06/15 04:44:38;;;;;;;5.97;3.20;;;;;;;21.96;100.00;101794.25;2048267;28;20263;-64
2022/06/15 04:45:38;;;;;;;5.23;2.80;;;;;;;22.05;100.00;101796.25;2047590;28;20192;-64
2022/06/15 04:46:39;;;;;;;5.50;2.90;;;;;;;21.97;100.00;101761.97;2045968;28;20282;-64
2022/06/15 04:47:40;;;;;;;6.50;3.20;;;;;;;22.14;100.00;101794.13;2046321;29;20248;-64
2022/06/15 04:48:41;;;;;;;5.53;3.20;;;;;;;21.25;100.00;101657.38;2047102;28;20184;-65
2022/06/15 04:49:41;;;;;;;4.33;2.97;;;;;;;22.15;100.00;101794.91;2046888;28;20204;-65
2022/06/15 04:50:42;;;;;;;4.70;3.10;;;;;;;22.15;100.00;101792.84;2042710;29;20191;-64
2022/06/15 04:51:43;;;;;;;7.87;2.83;;;;;;;22.09;100.00;101794.00;2044329;29;20188;-65
2022/06/15 04:52:45;;;;;;;5.57;3.37;;;;;;;22.02;100.00;101798.00;2046396;28;20188;-65
2022/06/15 04:53:45;;;;;;;8.67;3.37;;;;;;;22.03;100.00;101798.75;2042313;28;20584;-65
2022/06/15 04:54:46;;;;;;;6.90;3.23;;;;;;;22.12;100.00;101799.47;2043988;28;20825;-65
2022/06/15 04:55:46;;;;;;;6.33;3.10;;;;;;;22.14;100.00;101798.97;2044110;29;20183;-65
2022/06/15 04:56:47;;;;;;;6.03;3.13;;;;;;;22.13;100.00;101791.78;2044325;28;20202;-65
2022/06/15 04:57:50;;;;;;;7.27;3.43;;;;;;;22.14;100.00;101799.75;2045971;28;20291;-65
2022/06/15 04:58:51;;;;;;;5.70;3.20;;;;;;;22.02;100.00;101786.69;2047168;28;20818;-64
2022/06/15 04:59:52;;;;;;;5.07;3.03;;;;;;;21.51;100.00;101701.50;2047035;28;20875;-65
2022/06/15 05:00:52;;;;;;;6.43;3.37;;;;;;;22.28;100.00;101801.03;2046954;28;20184;-65